Time;durP1;ratioP1;P1;durP2;ratioP2;P2;SDS_P1;SDS_P2;PMS_P1;PMS_P2;Temp;Humidity;BMP_temperature;BMP_pressure;BME280_temperature;BME280_humidity;BME280_pressure;Samples;Min_cycle;Max_cycle;Signal;HPM_P1;HPM_P2
2022/10/29 00:00:37;;;;;;;20.63;8.07;;;17.40;99.90;;;;;;5093305;28;20977;-38
2022/10/29 00:03:03;;;;;;;12.00;6.30;;;17.50;99.90;;;;;;5093108;28;20639;-37
2022/10/29 00:05:29;;;;;;;13.63;6.70;;;17.50;99.90;;;;;;5093557;28;20414;-39
2022/10/29 00:07:54;;;;;;;12.57;6.73;;;17.60;99.90;;;;;;5093392;28;20648;-37
2022/10/29 00:10:20;;;;;;;9.53;6.63;;;17.70;99.90;;;;;;5093268;28;20188;-38
2022/10/29 00:12:46;;;;;;;13.57;6.60;;;17.80;99.90;;;;;;5092894;28;20745;-38
2022/10/29 00:15:11;;;;;;;12.30;6.43;;;17.80;99.90;;;;;;5092094;28;20200;-38
2022/10/29 00:17:37;;;;;;;16.23;6.30;;;17.80;99.90;;;;;;5093073;28;20231;-38
2022/10/29 00:20:03;;;;;;;12.13;6.30;;;17.80;99.90;;;;;;5093017;28;20482;-40
2022/10/29 00:22:29;;;;;;;16.10;6.40;;;17.70;99.90;;;;;;5093161;28;20189;-38
2022/10/29 00:24:54;;;;;;;13.57;6.73;;;17.70;99.90;;;;;;5093090;28;20434;-38
2022/10/29 00:27:20;;;;;;;9.97;5.90;;;17.70;99.90;;;;;;5093095;28;20188;-38
2022/10/29 00:29:45;;;;;;;13.30;6.23;;;17.70;99.90;;;;;;5092797;28;20562;-38
2022/10/29 00:32:11;;;;;;;13.03;6.40;;;17.60;99.90;;;;;;5092567;28;20247;-38
2022/10/29 00:34:37;;;;;;;12.07;7.20;;;17.70;99.90;;;;;;5092750;28;20206;-38
2022/10/29 00:37:03;;;;;;;15.07;6.47;;;17.60;99.90;;;;;;5093099;28;20187;-37
2022/10/29 00:39:29;;;;;;;13.57;6.50;;;17.60;99.90;;;;;;5092480;28;20254;-38
2022/10/29 00:41:55;;;;;;;11.50;6.70;;;17.60;99.90;;;;;;5092831;28;20821;-38
2022/10/29 00:44:20;;;;;;;10.43;6.50;;;17.60;99.90;;;;;;5092414;28;20216;-38
2022/10/29 00:46:57;;;;;;;11.37;6.50;;;17.60;99.90;;;;;;5091835;28;20454;-39
2022/10/29 00:49:25;;;;;;;14.53;6.67;;;17.60;99.90;;;;;;5092328;28;20719;-38
2022/10/29 00:51:51;;;;;;;12.83;6.77;;;17.50;99.90;;;;;;5092522;28;20501;-38
2022/10/29 00:54:18;;;;;;;13.47;6.40;;;17.50;99.90;;;;;;5090965;28;20498;-38
2022/10/29 00:56:49;;;;;;;8.20;6.50;;;17.50;99.90;;;;;;5091020;28;20463;-38
2022/10/29 00:59:16;;;;;;;11.90;6.33;;;17.50;99.90;;;;;;5091918;28;20434;-38
2022/10/29 01:01:43;;;;;;;10.40;6.07;;;17.40;99.90;;;;;;5092431;28;20415;-38
2022/10/29 01:04:10;;;;;;;14.07;6.60;;;17.40;99.90;;;;;;5092071;28;20497;-40
2022/10/29 01:06:36;;;;;;;7.00;6.00;;;17.40;99.90;;;;;;5092247;28;20808;-38
2022/10/29 01:09:02;;;;;;;11.13;6.70;;;17.40;99.90;;;;;;5091698;28;20423;-39
2022/10/29 01:11:45;;;;;;;10.27;6.50;;;17.40;99.90;;;;;;5092459;28;20422;-38
2022/10/29 01:14:46;;;;;;;11.77;6.43;;;17.30;99.90;;;;;;5092001;28;20192;-38
2022/10/29 01:17:35;;;;;;;14.33;6.37;;;17.30;99.90;;;;;;5092353;28;20921;-38
2022/10/29 01:20:15;;;;;;;7.47;5.57;;;17.20;99.90;;;;;;5091365;28;20414;-37
2022/10/29 01:23:04;;;;;;;11.57;6.93;;;17.20;99.90;;;;;;5091757;28;20455;-38
2022/10/29 01:25:57;;;;;;;13.97;6.33;;;17.20;99.90;;;;;;5091825;28;20423;-38
2022/10/29 01:28:31;;;;;;;11.10;6.13;;;17.10;99.90;;;;;;5091487;28;20927;-37
2022/10/29 01:30:59;;;;;;;11.40;6.37;;;17.10;99.90;;;;;;5092027;28;20409;-38
2022/10/29 01:33:37;;;;;;;10.10;6.20;;;17.00;99.90;;;;;;5091439;28;20454;-38
2022/10/29 01:36:12;;;;;;;14.00;6.37;;;17.00;99.90;;;;;;5091740;28;20509;-39
2022/10/29 01:39:11;;;;;;;10.80;6.90;;;17.00;99.90;;;;;;5091332;28;20761;-38
2022/10/29 01:41:45;;;;;;;9.97;6.27;;;16.90;99.90;;;;;;5091756;28;20395;-38
2022/10/29 01:44:32;;;;;;;14.03;7.00;;;16.90;99.90;;;;;;5091399;28;20444;-38
2022/10/29 01:47:03;;;;;;;13.70;6.67;;;16.80;99.90;;;;;;5091333;28;20414;-38
2022/10/29 01:49:36;;;;;;;9.90;6.33;;;16.80;99.90;;;;;;5091333;28;20403;-38
2022/10/29 01:52:05;;;;;;;12.93;7.90;;;16.80;99.90;;;;;;5091190;28;20493;-38
2022/10/29 01:54:30;;;;;;;22.60;6.83;;;16.80;99.90;;;;;;5090838;28;20913;-38
2022/10/29 01:56:58;;;;;;;16.30;6.20;;;16.80;99.90;;;;;;5089700;28;20406;-38
2022/10/29 01:59:28;;;;;;;10.03;5.87;;;16.80;99.90;;;;;;5090065;28;20188;-37
2022/10/29 02:02:05;;;;;;;15.77;7.43;;;16.80;99.90;;;;;;5090987;28;20900;-38
2022/10/29 02:04:55;;;;;;;9.37;5.90;;;16.80;99.90;;;;;;5091137;28;20490;-38
2022/10/29 02:07:35;;;;;;;12.90;6.90;;;16.80;99.90;;;;;;5091022;28;20430;-37
2022/10/29 02:10:21;;;;;;;11.87;6.17;;;16.70;99.90;;;;;;5090709;28;20423;-37
2022/10/29 02:12:50;;;;;;;8.43;5.40;;;16.70;99.90;;;;;;5090641;28;20458;-38
2022/10/29 02:15:47;;;;;;;10.53;6.53;;;16.70;99.90;;;;;;5089716;28;20448;-38
2022/10/29 02:18:13;;;;;;;14.93;7.07;;;16.60;99.90;;;;;;5089818;28;20513;-38
2022/10/29 02:20:44;;;;;;;8.63;6.10;;;16.40;99.90;;;;;;5090809;28;20854;-38
2022/10/29 02:23:09;;;;;;;14.23;6.60;;;16.40;99.90;;;;;;5090473;28;20430;-38
2022/10/29 02:25:35;;;;;;;9.40;5.87;;;16.40;99.90;;;;;;5090811;28;20423;-38
2022/10/29 02:28:01;;;;;;;17.90;7.27;;;16.30;99.90;;;;;;5090703;28;20188;-38
2022/10/29 02:30:27;;;;;;;11.87;6.33;;;16.20;99.90;;;;;;5090524;28;20214;-38
2022/10/29 02:32:52;;;;;;;12.30;6.83;;;16.20;99.90;;;;;;5090061;28;20208;-38
2022/10/29 02:35:18;;;;;;;12.70;7.10;;;16.10;99.90;;;;;;5090811;28;20684;-38
2022/10/29 02:37:44;;;;;;;11.47;7.00;;;16.10;99.90;;;;;;5090499;28;20187;-38
2022/10/29 02:40:10;;;;;;;10.53;5.83;;;16.10;99.90;;;;;;5090353;28;20188;-38
2022/10/29 02:42:35;;;;;;;8.63;6.10;;;16.00;99.90;;;;;;5090240;28;20184;-37
2022/10/29 02:45:01;;;;;;;12.13;6.97;;;16.00;99.90;;;;;;5090559;28;20954;-38
2022/10/29 02:47:27;;;;;;;9.30;6.63;;;16.00;99.90;;;;;;5090242;28;20192;-40
2022/10/29 02:49:53;;;;;;;11.37;7.50;;;16.00;99.90;;;;;;5090115;28;20239;-39
2022/10/29 02:52:18;;;;;;;7.73;5.90;;;15.90;99.90;;;;;;5090364;28;20476;-38
2022/10/29 02:54:44;;;;;;;17.77;7.37;;;15.90;99.90;;;;;;5090203;28;20195;-38
2022/10/29 02:57:10;;;;;;;14.20;6.80;;;15.90;99.90;;;;;;5087578;28;20191;-38
2022/10/29 02:59:35;;;;;;;12.67;7.17;;;15.90;99.90;;;;;;5089937;28;20184;-38
2022/10/29 03:02:01;;;;;;;14.30;6.93;;;15.80;99.90;;;;;;5090160;28;20597;-38
2022/10/29 03:04:26;;;;;;;15.70;7.30;;;15.80;99.90;;;;;;5090007;28;20242;-38
2022/10/29 03:06:52;;;;;;;10.30;7.17;;;15.80;99.90;;;;;;5090059;28;20199;-39
2022/10/29 03:09:18;;;;;;;11.90;7.00;;;15.70;99.90;;;;;;5089412;28;20199;-37
2022/10/29 03:11:43;;;;;;;12.37;6.60;;;15.70;99.90;;;;;;5090048;28;20594;-37
2022/10/29 03:14:09;;;;;;;7.90;7.10;;;15.70;99.90;;;;;;5089589;28;20211;-38
2022/10/29 03:16:35;;;;;;;13.90;6.40;;;15.70;99.90;;;;;;5090059;28;20194;-37
2022/10/29 03:19:00;;;;;;;13.33;7.20;;;15.70;99.90;;;;;;5089764;28;20184;-37
2022/10/29 03:21:26;;;;;;;12.57;7.10;;;15.70;99.90;;;;;;5090368;28;20913;-38
2022/10/29 03:23:52;;;;;;;11.70;7.93;;;15.60;99.90;;;;;;5089606;28;20192;-38
2022/10/29 03:26:17;;;;;;;13.63;7.10;;;15.60;99.90;;;;;;5090012;28;20259;-38
2022/10/29 03:28:43;;;;;;;11.97;7.40;;;15.70;99.90;;;;;;5089585;28;20670;-38
2022/10/29 03:31:09;;;;;;;10.83;6.77;;;15.80;99.90;;;;;;5089645;28;20192;-38
2022/10/29 03:33:35;;;;;;;15.13;7.90;;;15.90;99.90;;;;;;5089597;28;20307;-38
2022/10/29 03:36:06;;;;;;;9.67;6.47;;;15.90;99.90;;;;;;5089828;28;20176;-38
2022/10/29 03:38:33;;;;;;;14.07;7.20;;;16.00;99.90;;;;;;5089596;28;20469;-39
2022/10/29 03:40:58;;;;;;;10.20;6.77;;;16.10;99.90;;;;;;5089930;28;20421;-38
2022/10/29 03:43:24;;;;;;;17.83;8.17;;;16.00;99.90;;;;;;5089600;28;20437;-38
2022/10/29 03:45:51;;;;;;;13.80;6.63;;;16.00;99.90;;;;;;5089552;28;20222;-38
2022/10/29 03:48:17;;;;;;;16.00;7.47;;;15.90;99.90;;;;;;5089698;28;20423;-38
2022/10/29 03:50:42;;;;;;;10.60;7.77;;;16.10;99.90;;;;;;5089488;28;20421;-37
2022/10/29 03:53:09;;;;;;;13.73;7.37;;;16.10;99.90;;;;;;5089602;28;20681;-37
2022/10/29 03:55:35;;;;;;;10.17;7.03;;;16.00;99.90;;;;;;5088111;28;20177;-37
2022/10/29 03:58:00;;;;;;;10.00;6.50;;;16.00;99.90;;;;;;5089821;28;20410;-38
2022/10/29 04:00:26;;;;;;;14.10;7.00;;;16.00;99.90;;;;;;5089098;28;20177;-38
2022/10/29 04:02:51;;;;;;;11.67;6.90;;;16.00;99.90;;;;;;5089499;28;20184;-38
2022/10/29 04:05:17;;;;;;;17.17;8.10;;;15.90;99.90;;;;;;5089635;28;20719;-38
2022/10/29 04:07:43;;;;;;;13.97;7.60;;;15.90;99.90;;;;;;5089611;28;20193;-38
2022/10/29 04:10:08;;;;;;;14.13;6.97;;;15.90;99.90;;;;;;5089402;28;20217;-38
2022/10/29 04:12:34;;;;;;;11.10;8.33;;;15.90;99.90;;;;;;5089265;28;20219;-38
2022/10/29 04:14:59;;;;;;;7.60;6.37;;;15.90;99.90;;;;;;5089295;28;20184;-38
2022/10/29 04:17:25;;;;;;;9.90;7.23;;;15.90;99.90;;;;;;5088170;28;20588;-37
2022/10/29 04:19:51;;;;;;;11.57;6.83;;;15.90;99.90;;;;;;5089352;28;20284;-38
2022/10/29 04:22:16;;;;;;;11.40;7.40;;;15.90;99.90;;;;;;5091394;28;20249;-39
2022/10/29 04:24:42;;;;;;;14.27;8.40;;;15.90;99.90;;;;;;5092998;28;20208;-38
2022/10/29 04:27:08;;;;;;;14.90;7.33;;;15.90;99.90;;;;;;5092915;28;20722;-38
2022/10/29 04:29:33;;;;;;;14.57;7.23;;;15.90;99.90;;;;;;5092618;28;20220;-38
2022/10/29 04:31:59;;;;;;;19.27;7.77;;;15.90;99.90;;;;;;5092986;28;20205;-38
2022/10/29 04:34:24;;;;;;;12.63;7.00;;;15.90;99.90;;;;;;5093010;28;20188;-38
2022/10/29 04:36:51;;;;;;;14.10;6.70;;;15.90;99.90;;;;;;5093034;28;20185;-38
2022/10/29 04:39:16;;;;;;;11.80;7.83;;;15.80;99.90;;;;;;5092516;28;20184;-38
2022/10/29 04:41:42;;;;;;;10.80;6.77;;;15.80;99.90;;;;;;5092941;28;20411;-40
2022/10/29 04:44:08;;;;;;;12.27;8.20;;;15.80;99.90;;;;;;5092198;28;20230;-38
2022/10/29 04:46:33;;;;;;;11.17;7.20;;;15.80;99.90;;;;;;5092815;28;20185;-37
2022/10/29 04:48:59;;;;;;;9.67;7.00;;;16.00;99.90;;;;;;5092318;28;20230;-37
2022/10/29 04:51:26;;;;;;;12.23;7.30;;;16.00;99.90;;;;;;5092712;28;20251;-38
2022/10/29 04:53:51;;;;;;;15.23;7.20;;;16.00;99.90;;;;;;5092212;28;20595;-40
2022/10/29 04:56:17;;;;;;;14.17;8.47;;;16.00;99.90;;;;;;5091648;28;20414;-37
2022/10/29 04:58:43;;;;;;;14.20;8.20;;;16.10;99.90;;;;;;5091755;28;20509;-38
2022/10/29 05:01:09;;;;;;;11.43;7.73;;;16.00;99.90;;;;;;5092735;28;20905;-39
2022/10/29 05:03:35;;;;;;;15.30;8.20;;;16.10;99.90;;;;;;5092043;28;20188;-38
2022/10/29 05:06:05;;;;;;;10.73;7.80;;;16.10;99.90;;;;;;5092345;28;20196;-38
2022/10/29 05:08:32;;;;;;;15.53;8.60;;;16.10;99.90;;;;;;5091780;28;20418;-37
2022/10/29 05:11:01;;;;;;;13.30;6.73;;;16.10;99.90;;;;;;5092347;28;20418;-38
2022/10/29 05:13:26;;;;;;;14.23;8.03;;;16.20;99.90;;;;;;5091418;28;21039;-38
2022/10/29 05:15:52;;;;;;;12.40;7.20;;;16.20;99.90;;;;;;5092269;28;20551;-39
2022/10/29 05:18:18;;;;;;;13.17;7.50;;;16.20;99.90;;;;;;5092139;28;20271;-37
2022/10/29 05:20:43;;;;;;;16.03;7.13;;;16.20;99.90;;;;;;5091756;28;20177;-37
2022/10/29 05:23:10;;;;;;;8.40;6.27;;;16.20;99.90;;;;;;5091800;28;20781;-37
2022/10/29 05:25:38;;;;;;;17.63;7.77;;;16.20;99.90;;;;;;5091995;28;20685;-38
2022/10/29 05:28:20;;;;;;;10.73;7.20;;;16.30;99.90;;;;;;5091618;28;20441;-38
2022/10/29 05:30:47;;;;;;;14.27;7.53;;;16.30;99.90;;;;;;5091489;28;20461;-38
2022/10/29 05:33:15;;;;;;;16.90;6.90;;;16.20;99.90;;;;;;5091069;28;20538;-37
2022/10/29 05:35:41;;;;;;;11.00;6.70;;;16.20;99.90;;;;;;5091702;28;20417;-37
2022/10/29 05:38:09;;;;;;;9.63;6.20;;;16.20;99.90;;;;;;5091539;28;20414;-38
2022/10/29 05:40:34;;;;;;;19.70;7.80;;;16.20;99.90;;;;;;5091019;28;20757;-37
2022/10/29 05:43:00;;;;;;;17.73;8.40;;;16.20;99.90;;;;;;5091550;28;20419;-37
2022/10/29 05:45:26;;;;;;;12.60;7.03;;;16.20;99.90;;;;;;5091633;28;20184;-37
2022/10/29 05:47:56;;;;;;;14.87;8.10;;;16.20;99.90;;;;;;5091620;28;20195;-38
2022/10/29 05:50:22;;;;;;;12.27;7.10;;;16.20;99.90;;;;;;5091210;28;20206;-37
2022/10/29 05:52:59;;;;;;;11.13;7.00;;;16.30;99.90;;;;;;5091029;28;20454;-38
2022/10/29 05:55:25;;;;;;;13.87;7.40;;;16.20;99.90;;;;;;5090555;28;20786;-38
2022/10/29 05:57:55;;;;;;;9.80;6.90;;;16.10;99.90;;;;;;5090244;28;20538;-38
2022/10/29 06:00:21;;;;;;;15.17;6.63;;;16.10;99.90;;;;;;5090809;28;20431;-38
2022/10/29 06:02:47;;;;;;;10.87;6.80;;;16.10;99.90;;;;;;5091046;28;20426;-39
2022/10/29 06:05:12;;;;;;;12.10;6.90;;;16.10;99.90;;;;;;5091145;28;20192;-38
2022/10/29 06:07:38;;;;;;;10.60;7.00;;;16.10;99.90;;;;;;5090951;28;20226;-37
2022/10/29 06:10:04;;;;;;;12.10;6.90;;;16.10;99.90;;;;;;5091135;28;20189;-38
2022/10/29 06:12:31;;;;;;;11.77;7.40;;;16.10;99.90;;;;;;5089462;28;20705;-39
2022/10/29 06:14:57;;;;;;;14.20;7.07;;;16.10;99.90;;;;;;5090844;28;20529;-37
2022/10/29 06:17:23;;;;;;;10.53;6.77;;;16.10;99.90;;;;;;5090850;28;20454;-38
2022/10/29 06:19:49;;;;;;;10.20;6.80;;;16.20;99.90;;;;;;5090474;28;20415;-38
2022/10/29 06:22:14;;;;;;;10.40;6.77;;;16.20;99.90;;;;;;5090530;28;20189;-38
2022/10/29 06:24:40;;;;;;;10.20;6.60;;;16.30;99.90;;;;;;5090656;28;20760;-38
2022/10/29 06:27:05;;;;;;;11.87;6.10;;;16.30;99.90;;;;;;5089347;28;20188;-38
2022/10/29 06:29:31;;;;;;;14.73;6.67;;;16.20;99.90;;;;;;5090489;28;20203;-39
2022/10/29 06:31:57;;;;;;;11.43;6.63;;;16.10;99.90;;;;;;5090592;28;20195;-37
2022/10/29 06:34:22;;;;;;;11.23;6.70;;;16.10;99.90;;;;;;5090307;28;20195;-38
2022/10/29 06:36:48;;;;;;;11.00;6.67;;;16.10;99.90;;;;;;5090264;28;20188;-37
2022/10/29 06:39:13;;;;;;;12.13;6.77;;;16.10;99.90;;;;;;5090381;28;20184;-39
2022/10/29 06:41:39;;;;;;;7.53;6.07;;;16.10;99.90;;;;;;5090646;28;20180;-38
2022/10/29 06:44:05;;;;;;;15.00;6.13;;;16.20;99.90;;;;;;5089555;28;20184;-38
2022/10/29 06:46:32;;;;;;;10.67;6.43;;;16.20;99.90;;;;;;5090392;28;20195;-37
2022/10/29 06:48:58;;;;;;;12.20;6.47;;;16.30;99.90;;;;;;5090077;28;20249;-37
2022/10/29 06:51:24;;;;;;;12.57;7.63;;;16.40;99.90;;;;;;5090313;28;20456;-38
2022/10/29 06:53:49;;;;;;;8.67;6.50;;;16.50;99.90;;;;;;5089952;28;20219;-38
2022/10/29 06:56:15;;;;;;;13.53;6.80;;;16.60;99.90;;;;;;5089296;28;20177;-37
2022/10/29 06:58:41;;;;;;;11.83;6.90;;;16.70;99.90;;;;;;5089869;28;20184;-37
2022/10/29 07:01:06;;;;;;;11.90;7.40;;;16.80;99.90;;;;;;5090545;28;20260;-38
2022/10/29 07:03:32;;;;;;;10.47;6.73;;;16.80;99.90;;;;;;5089908;28;20233;-38
2022/10/29 07:05:58;;;;;;;11.43;6.17;;;16.90;99.90;;;;;;5088649;28;20204;-38
2022/10/29 07:08:25;;;;;;;9.50;6.60;;;16.90;99.90;;;;;;5089714;28;20214;-37
2022/10/29 07:10:52;;;;;;;12.57;6.27;;;16.90;99.90;;;;;;5090166;28;20422;-37
2022/10/29 07:13:17;;;;;;;11.63;6.40;;;16.90;99.90;;;;;;5089734;28;20457;-38
2022/10/29 07:15:43;;;;;;;10.77;6.57;;;16.90;99.90;;;;;;5089071;28;20479;-38
2022/10/29 07:18:10;;;;;;;11.50;6.17;;;16.90;99.90;;;;;;5089917;28;20237;-37
2022/10/29 07:20:41;;;;;;;12.30;6.17;;;17.00;99.90;;;;;;5089713;28;20247;-38
2022/10/29 07:23:08;;;;;;;12.70;6.13;;;17.00;99.90;;;;;;5089922;28;20442;-38
2022/10/29 07:25:35;;;;;;;8.77;5.23;;;17.00;99.90;;;;;;5089948;28;20422;-37
2022/10/29 07:28:09;;;;;;;11.73;6.47;;;17.00;99.90;;;;;;5089970;28;20422;-38
2022/10/29 07:30:34;;;;;;;12.07;6.37;;;17.10;99.90;;;;;;5089667;28;20432;-37
2022/10/29 07:33:00;;;;;;;12.00;6.60;;;17.10;99.90;;;;;;5089247;28;20458;-38
2022/10/29 07:35:26;;;;;;;14.93;6.00;;;17.10;99.90;;;;;;5090012;28;20210;-38
2022/10/29 07:37:56;;;;;;;10.40;5.40;;;17.10;99.90;;;;;;5090276;28;20180;-38
2022/10/29 07:40:22;;;;;;;11.27;6.73;;;17.10;99.90;;;;;;5089581;28;20184;-38
2022/10/29 07:42:51;;;;;;;16.97;6.30;;;17.10;99.90;;;;;;5089658;28;20422;-38
2022/10/29 07:45:17;;;;;;;14.20;6.33;;;17.10;99.90;;;;;;5089662;28;20610;-37
2022/10/29 07:47:42;;;;;;;8.23;5.17;;;17.20;99.90;;;;;;5089698;28;20418;-38
2022/10/29 07:50:08;;;;;;;10.07;5.83;;;17.20;99.90;;;;;;5089514;28;20184;-38
2022/10/29 07:52:34;;;;;;;10.43;5.10;;;17.30;99.90;;;;;;5089495;28;20219;-37
2022/10/29 07:55:01;;;;;;;10.80;6.13;;;17.30;99.90;;;;;;5089568;28;21107;-38
2022/10/29 07:57:27;;;;;;;12.93;5.60;;;17.40;99.90;;;;;;5091257;28;20817;-38
2022/10/29 07:59:53;;;;;;;9.40;5.40;;;17.50;99.90;;;;;;5093165;28;20406;-38
2022/10/29 08:02:18;;;;;;;9.03;5.57;;;17.60;99.90;;;;;;5091977;28;21228;-37
2022/10/29 08:04:44;;;;;;;10.50;5.50;;;17.70;99.90;;;;;;5093351;28;20215;-38
2022/10/29 08:07:10;;;;;;;10.20;5.80;;;17.80;99.90;;;;;;5093496;28;20265;-38
2022/10/29 08:09:35;;;;;;;11.03;5.17;;;17.80;99.90;;;;;;5093092;28;20228;-38
2022/10/29 08:12:03;;;;;;;14.83;5.90;;;17.90;99.90;;;;;;5093426;28;20185;-39
2022/10/29 08:14:29;;;;;;;10.60;6.10;;;17.90;99.90;;;;;;5093054;28;20184;-38
2022/10/29 08:16:55;;;;;;;9.00;5.30;;;17.90;99.90;;;;;;5093167;28;20466;-38
2022/10/29 08:19:21;;;;;;;17.60;6.00;;;17.90;99.90;;;;;;5092883;28;20800;-37
2022/10/29 08:21:47;;;;;;;8.07;4.53;;;17.90;99.90;;;;;;5093291;28;20172;-40
2022/10/29 08:24:12;;;;;;;8.47;5.13;;;17.90;99.90;;;;;;5092813;28;20915;-37
2022/10/29 08:26:38;;;;;;;11.43;5.20;;;18.00;99.90;;;;;;5091777;28;20188;-38
2022/10/29 08:29:04;;;;;;;15.67;5.27;;;18.10;99.90;;;;;;5092645;28;20184;-38
2022/10/29 08:31:29;;;;;;;12.27;5.17;;;18.10;99.90;;;;;;5093021;28;20964;-37
2022/10/29 08:33:55;;;;;;;8.80;5.17;;;18.20;99.90;;;;;;5091537;28;20208;-38
2022/10/29 08:36:21;;;;;;;7.90;5.00;;;18.20;99.90;;;;;;5093082;28;20176;-37
2022/10/29 08:38:47;;;;;;;13.43;5.67;;;18.30;99.90;;;;;;5092460;28;20181;-37
2022/10/29 08:41:50;;;;;;;10.57;4.53;;;18.40;99.90;;;;;;5093004;28;20583;-39
2022/10/29 08:44:48;;;;;;;13.40;5.87;;;18.60;99.90;;;;;;5092736;28;20410;-37
2022/10/29 08:47:19;;;;;;;10.47;4.97;;;18.70;99.90;;;;;;5092737;28;20406;-39
2022/10/29 08:50:21;;;;;;;9.93;5.20;;;18.80;99.90;;;;;;5092427;28;20447;-38
2022/10/29 08:52:47;;;;;;;12.10;5.20;;;18.90;99.90;;;;;;5084528;28;21054;-38
2022/10/29 08:55:23;;;;;;;14.77;6.77;;;19.00;99.90;;;;;;5090776;28;20770;-38
2022/10/29 08:57:55;;;;;;;10.77;5.50;;;19.00;99.90;;;;;;5092537;28;20418;-37
2022/10/29 09:00:25;;;;;;;8.30;5.87;;;19.00;99.90;;;;;;5092216;28;20903;-39
2022/10/29 09:02:56;;;;;;;11.20;6.20;;;19.00;99.90;;;;;;5092290;28;20881;-38
2022/10/29 09:05:26;;;;;;;12.43;4.93;;;19.00;99.90;;;;;;5092444;28;20454;-38
2022/10/29 09:08:01;;;;;;;18.30;4.80;;;19.20;99.90;;;;;;5091682;28;20410;-37
2022/10/29 09:10:30;;;;;;;11.20;4.77;;;19.40;99.90;;;;;;5092099;28;20408;-38
2022/10/29 09:13:15;;;;;;;13.30;5.00;;;19.60;99.90;;;;;;5091685;28;20485;-38
2022/10/29 09:16:34;;;;;;;15.20;5.30;;;19.80;99.90;;;;;;5092286;28;20499;-39
2022/10/29 09:19:13;;;;;;;9.87;5.50;;;20.10;99.90;;;;;;5074198;28;20933;-38
2022/10/29 09:22:08;;;;;;;9.53;4.73;;;20.20;99.90;;;;;;5092336;28;20403;-39
2022/10/29 09:24:51;;;;;;;8.80;4.63;;;20.20;99.90;;;;;;5085514;28;20411;-38
2022/10/29 09:27:28;;;;;;;9.30;4.60;;;20.10;99.90;;;;;;5092164;28;20516;-39
2022/10/29 09:29:59;;;;;;;13.00;5.13;;;20.10;99.90;;;;;;5091638;28;20920;-38
2022/10/29 09:32:42;;;;;;;8.80;4.70;;;20.10;99.90;;;;;;5091722;28;20977;-38
2022/10/29 09:35:14;;;;;;;11.30;5.57;;;20.20;99.90;;;;;;5091840;28;20956;-38
2022/10/29 09:37:46;;;;;;;12.63;4.43;;;20.30;99.90;;;;;;5091713;28;20498;-38
2022/10/29 09:40:41;;;;;;;11.43;4.83;;;20.30;99.90;;;;;;5091251;28;20398;-38
2022/10/29 09:43:28;;;;;;;14.30;5.60;;;20.40;99.90;;;;;;5090304;28;20410;-38
2022/10/29 09:46:00;;;;;;;9.20;4.70;;;20.40;99.90;;;;;;5091645;28;20425;-40
2022/10/29 09:48:35;;;;;;;11.17;5.23;;;20.50;99.90;;;;;;5091166;28;20414;-38
2022/10/29 09:51:21;;;;;;;6.53;4.10;;;20.50;99.90;;;;;;5091562;28;20505;-38
2022/10/29 09:53:48;;;;;;;12.27;4.67;;;20.50;99.90;;;;;;5091208;28;20457;-39
2022/10/29 09:56:14;;;;;;;11.30;4.97;;;20.50;99.90;;;;;;5090562;28;20442;-41
2022/10/29 09:58:43;;;;;;;9.47;4.47;;;20.50;99.90;;;;;;5090865;28;20924;-40
2022/10/29 10:01:09;;;;;;;8.17;5.07;;;20.50;99.90;;;;;;5091422;28;20546;-41
2022/10/29 10:03:44;;;;;;;11.83;4.90;;;20.60;99.90;;;;;;5090911;28;20422;-38
2022/10/29 10:06:12;;;;;;;11.73;4.60;;;20.60;99.90;;;;;;5089814;28;20199;-38
2022/10/29 10:09:04;;;;;;;11.90;4.63;;;20.60;99.90;;;;;;5090771;28;20422;-39
2022/10/29 10:11:39;;;;;;;10.77;4.23;;;20.70;99.90;;;;;;5091367;28;20418;-38
2022/10/29 10:14:14;;;;;;;8.80;4.33;;;20.70;99.90;;;;;;5090685;28;20510;-41
2022/10/29 10:16:40;;;;;;;7.50;4.20;;;20.60;99.90;;;;;;5091098;28;20398;-38
2022/10/29 10:19:25;;;;;;;8.20;4.43;;;20.60;99.90;;;;;;5089851;28;20414;-38
2022/10/29 10:22:02;;;;;;;7.70;4.63;;;20.60;99.90;;;;;;5090897;28;20508;-39
2022/10/29 10:24:33;;;;;;;13.17;4.40;;;20.60;99.90;;;;;;5090701;28;20504;-41
2022/10/29 10:26:59;;;;;;;10.43;4.50;;;20.70;99.90;;;;;;5090826;28;20414;-38
2022/10/29 10:29:26;;;;;;;8.20;4.40;;;20.70;99.90;;;;;;5090507;28;20429;-39
2022/10/29 10:31:54;;;;;;;10.80;4.70;;;20.80;99.90;;;;;;5090669;28;20548;-38
2022/10/29 10:34:25;;;;;;;12.80;5.00;;;20.80;99.90;;;;;;5090336;28;20417;-38
2022/10/29 10:37:03;;;;;;;9.20;5.40;;;20.80;99.90;;;;;;5090543;28;20901;-38
2022/10/29 10:39:43;;;;;;;10.73;4.10;;;20.90;99.90;;;;;;5090338;28;20409;-40
2022/10/29 10:42:21;;;;;;;8.63;4.43;;;20.90;99.90;;;;;;5090546;28;20768;-37
2022/10/29 10:44:56;;;;;;;8.60;4.47;;;21.00;99.90;;;;;;5090262;28;20927;-38
2022/10/29 10:47:26;;;;;;;10.53;4.20;;;21.10;99.90;;;;;;5090621;28;20410;-38
2022/10/29 10:49:52;;;;;;;10.53;4.73;;;21.20;99.90;;;;;;5090195;28;20402;-40
2022/10/29 10:52:24;;;;;;;11.77;4.47;;;21.20;99.90;;;;;;5090302;28;20534;-38
2022/10/29 10:54:56;;;;;;;9.93;5.07;;;21.20;99.90;;;;;;5090285;28;20406;-39
2022/10/29 10:57:25;;;;;;;12.43;4.87;;;21.30;99.90;;;;;;5089402;28;20407;-38
2022/10/29 10:59:56;;;;;;;7.80;4.33;;;21.30;99.90;;;;;;5090007;28;20414;-38
2022/10/29 11:02:40;;;;;;;12.80;4.67;;;21.40;99.90;;;;;;5090286;28;20488;-38
2022/10/29 11:05:30;;;;;;;9.03;4.90;;;21.40;99.90;;;;;;5088936;28;20506;-40
2022/10/29 11:08:24;;;;;;;14.47;4.30;;;21.40;99.90;;;;;;5089993;28;20509;-40
2022/10/29 11:11:26;;;;;;;11.00;4.70;;;21.40;99.90;;;;;;5090368;28;20430;-38
2022/10/29 11:13:53;;;;;;;10.00;4.03;;;21.40;99.90;;;;;;5082345;28;20470;-41
2022/10/29 11:16:44;;;;;;;11.73;4.70;;;21.50;99.90;;;;;;5090263;28;20407;-38
2022/10/29 11:19:37;;;;;;;11.17;4.33;;;21.60;99.90;;;;;;5089789;28;20406;-38
2022/10/29 11:22:30;;;;;;;7.13;3.83;;;21.60;99.90;;;;;;5088744;28;20406;-38
2022/10/29 11:25:13;;;;;;;7.87;4.30;;;21.60;99.90;;;;;;5089924;28;20468;-41
2022/10/29 11:28:07;;;;;;;10.90;4.70;;;21.60;99.90;;;;;;5090197;28;20868;-38
2022/10/29 11:30:39;;;;;;;13.10;5.40;;;21.70;99.90;;;;;;5090443;28;20772;-38
2022/10/29 11:33:31;;;;;;;8.87;4.60;;;21.90;99.90;;;;;;5093878;28;20481;-39
2022/10/29 11:36:05;;;;;;;12.20;4.27;;;22.00;99.90;;;;;;5092928;28;20403;-38
2022/10/29 11:39:03;;;;;;;11.80;4.80;;;22.10;99.90;;;;;;5093880;28;21133;-41
2022/10/29 11:41:57;;;;;;;8.03;4.37;;;22.20;99.90;;;;;;5083085;28;20509;-41
2022/10/29 11:44:25;;;;;;;10.00;4.57;;;22.40;99.90;;;;;;5093631;28;20951;-40
2022/10/29 11:46:52;;;;;;;12.23;4.57;;;22.50;99.90;;;;;;5094012;28;20410;-39
2022/10/29 11:49:36;;;;;;;7.70;4.13;;;22.60;99.90;;;;;;5093370;28;20418;-38
2022/10/29 11:52:07;;;;;;;6.43;3.93;;;22.60;99.90;;;;;;5093906;28;20406;-38
2022/10/29 11:54:57;;;;;;;10.13;4.50;;;22.70;99.90;;;;;;5093208;28;20410;-38
2022/10/29 11:57:47;;;;;;;11.60;4.47;;;22.80;99.90;;;;;;5092790;28;20770;-39
2022/10/29 12:00:22;;;;;;;10.73;4.57;;;22.90;99.90;;;;;;5093278;28;20398;-40
2022/10/29 12:03:16;;;;;;;11.13;4.70;;;22.90;99.90;;;;;;5093373;28;20409;-41
2022/10/29 12:05:49;;;;;;;11.53;5.00;;;23.00;99.90;;;;;;5093411;28;20426;-39
2022/10/29 12:08:32;;;;;;;10.37;4.47;;;23.00;99.90;;;;;;5093630;28;20415;-43
2022/10/29 12:11:10;;;;;;;12.63;5.17;;;23.00;99.90;;;;;;5092137;28;21135;-39
2022/10/29 12:13:58;;;;;;;6.67;3.90;;;23.00;99.90;;;;;;5093176;28;20519;-38
2022/10/29 12:16:43;;;;;;;11.20;4.87;;;23.00;99.90;;;;;;5093273;28;20493;-42
2022/10/29 12:19:44;;;;;;;5.73;3.87;;;23.00;99.90;;;;;;5093038;28;20424;-39
2022/10/29 12:22:51;;;;;;;8.80;4.30;;;23.00;99.90;;;;;;5010464;28;20799;-39
2022/10/29 12:25:30;;;;;;;7.37;3.73;;;23.00;99.90;;;;;;5093349;28;20418;-39
2022/10/29 12:28:22;;;;;;;13.07;4.20;;;22.90;99.90;;;;;;5093055;28;20394;-38
2022/10/29 12:31:05;;;;;;;10.17;3.67;;;23.00;99.90;;;;;;5093181;28;20776;-40
2022/10/29 12:33:48;;;;;;;7.97;3.70;;;22.90;99.90;;;;;;5092980;28;20461;-40
2022/10/29 12:36:17;;;;;;;11.40;4.60;;;22.90;99.90;;;;;;5093157;28;20492;-40
2022/10/29 12:38:49;;;;;;;7.77;3.70;;;22.90;99.90;;;;;;5092690;28;20446;-39
2022/10/29 12:41:22;;;;;;;13.00;3.80;;;22.80;99.90;;;;;;5092927;28;20402;-40
2022/10/29 12:43:50;;;;;;;10.33;4.37;;;22.80;99.90;;;;;;5091684;28;20429;-39
2022/10/29 12:46:35;;;;;;;12.40;4.30;;;22.70;99.90;;;;;;5092978;28;21127;-38
2022/10/29 12:49:09;;;;;;;9.17;4.57;;;22.70;99.90;;;;;;5092341;28;20406;-40
2022/10/29 12:51:48;;;;;;;10.23;4.10;;;22.60;99.90;;;;;;5092765;28;20764;-39
2022/10/29 12:54:29;;;;;;;8.60;4.43;;;22.60;99.90;;;;;;5092525;28;20446;-41
2022/10/29 12:57:01;;;;;;;7.80;4.17;;;22.60;99.90;;;;;;5091863;28;21062;-40
2022/10/29 12:59:31;;;;;;;8.33;4.60;;;22.70;99.90;;;;;;5092386;28;20419;-38